sensor_id;sensor_type;location;lat;lon;timestamp;pressure;altitude;pressure_sealevel;temperature;humidity
6899;BME280;3488;42.616;23.350;2024-02-14T00:02:11;93044.06;;;3.69;79.92
6899;BME280;3488;42.616;23.350;2024-02-14T00:04:37;93047.84;;;3.76;78.49
6899;BME280;3488;42.616;23.350;2024-02-14T00:07:04;93070.16;;;3.81;78.64
6899;BME280;3488;42.616;23.350;2024-02-14T00:09:31;93062.44;;;3.86;78.50
6899;BME280;3488;42.616;23.350;2024-02-14T00:11:56;93050.91;;;3.83;78.38
6899;BME280;3488;42.616;23.350;2024-02-14T00:14:22;93063.47;;;3.85;76.94
6899;BME280;3488;42.616;23.350;2024-02-14T00:16:47;93080.16;;;3.88;77.92
6899;BME280;3488;42.616;23.350;2024-02-14T00:19:13;93067.06;;;3.84;77.72
6899;BME280;3488;42.616;23.350;2024-02-14T00:21:39;93076.25;;;3.95;78.36
6899;BME280;3488;42.616;23.350;2024-02-14T00:24:05;93069.59;;;3.94;78.29
6899;BME280;3488;42.616;23.350;2024-02-14T00:26:31;93074.44;;;4.01;77.76
6899;BME280;3488;42.616;23.350;2024-02-14T00:28:56;93077.00;;;4.01;77.26
6899;BME280;3488;42.616;23.350;2024-02-14T00:31:22;93087.53;;;3.99;77.83
6899;BME280;3488;42.616;23.350;2024-02-14T00:33:48;93084.19;;;3.99;77.33
6899;BME280;3488;42.616;23.350;2024-02-14T00:36:13;93090.88;;;4.00;77.00
6899;BME280;3488;42.616;23.350;2024-02-14T00:38:39;93098.03;;;4.03;77.27
6899;BME280;3488;42.616;23.350;2024-02-14T00:41:04;93078.56;;;3.97;77.58
6899;BME280;3488;42.616;23.350;2024-02-14T00:43:30;93072.69;;;3.91;77.30
6899;BME280;3488;42.616;23.350;2024-02-14T00:45:55;93087.53;;;3.99;76.27
6899;BME280;3488;42.616;23.350;2024-02-14T00:48:23;93083.41;;;4.03;76.33
6899;BME280;3488;42.616;23.350;2024-02-14T00:50:49;93082.41;;;3.99;77.66
6899;BME280;3488;42.616;23.350;2024-02-14T00:53:14;93067.81;;;3.95;77.33
6899;BME280;3488;42.616;23.350;2024-02-14T00:55:40;93080.59;;;4.05;77.17
6899;BME280;3488;42.616;23.350;2024-02-14T00:58:06;93082.13;;;4.01;77.11
6899;BME280;3488;42.616;23.350;2024-02-14T01:00:32;93092.66;;;4.04;76.24
6899;BME280;3488;42.616;23.350;2024-02-14T01:02:58;93088.31;;;4.00;75.72
6899;BME280;3488;42.616;23.350;2024-02-14T01:05:24;93088.34;;;3.90;76.94
6899;BME280;3488;42.616;23.350;2024-02-14T01:07:49;93082.16;;;3.96;76.27
6899;BME280;3488;42.616;23.350;2024-02-14T01:10:15;93093.19;;;4.01;75.99
6899;BME280;3488;42.616;23.350;2024-02-14T01:12:41;93086.28;;;3.92;77.50
6899;BME280;3488;42.616;23.350;2024-02-14T01:15:07;93084.47;;;3.97;76.25
6899;BME280;3488;42.616;23.350;2024-02-14T01:17:32;93077.81;;;3.91;76.45
6899;BME280;3488;42.616;23.350;2024-02-14T01:20:01;93075.53;;;3.90;76.69
6899;BME280;3488;42.616;23.350;2024-02-14T01:22:26;93084.97;;;3.99;75.90
6899;BME280;3488;42.616;23.350;2024-02-14T01:24:52;93075.25;;;3.96;75.51
6899;BME280;3488;42.616;23.350;2024-02-14T01:27:17;93081.09;;;4.02;75.53
6899;BME280;3488;42.616;23.350;2024-02-14T01:29:43;93091.59;;;4.05;75.46
6899;BME280;3488;42.616;23.350;2024-02-14T01:32:09;93083.19;;;3.95;76.05
6899;BME280;3488;42.616;23.350;2024-02-14T01:34:34;93081.38;;;4.00;75.91
6899;BME280;3488;42.616;23.350;2024-02-14T01:37:00;93066.00;;;3.95;75.21
6899;BME280;3488;42.616;23.350;2024-02-14T01:39:26;93080.88;;;3.98;75.14
6899;BME280;3488;42.616;23.350;2024-02-14T01:41:51;93088.03;;;4.01;75.83
6899;BME280;3488;42.616;23.350;2024-02-14T01:44:17;93070.34;;;4.00;75.15
6899;BME280;3488;42.616;23.350;2024-02-14T01:46:44;93086.19;;;4.07;74.62
6899;BME280;3488;42.616;23.350;2024-02-14T01:49:13;93093.44;;;4.00;76.39
6899;BME280;3488;42.616;23.350;2024-02-14T01:51:42;93078.78;;;4.05;74.83
6899;BME280;3488;42.616;23.350;2024-02-14T01:54:11;93087.28;;;4.01;76.15
6899;BME280;3488;42.616;23.350;2024-02-14T01:56:37;93092.66;;;4.04;75.68
6899;BME280;3488;42.616;23.350;2024-02-14T01:59:03;93076.50;;;3.94;75.89
6899;BME280;3488;42.616;23.350;2024-02-14T02:01:32;93069.84;;;3.98;74.73
6899;BME280;3488;42.616;23.350;2024-02-14T02:03:58;93077.50;;;4.03;74.80
6899;BME280;3488;42.616;23.350;2024-02-14T02:06:24;93071.34;;;4.04;73.72
6899;BME280;3488;42.616;23.350;2024-02-14T02:08:51;93070.09;;;3.96;75.48
6899;BME280;3488;42.616;23.350;2024-02-14T02:11:17;93069.59;;;3.94;74.07
6899;BME280;3488;42.616;23.350;2024-02-14T02:13:44;93085.78;;;3.95;74.28
6899;BME280;3488;42.616;23.350;2024-02-14T02:16:09;93083.19;;;3.95;74.01
6899;BME280;3488;42.616;23.350;2024-02-14T02:18:35;93069.63;;;3.89;74.83
6899;BME280;3488;42.616;23.350;2024-02-14T02:21:02;93091.63;;;4.00;74.45
6899;BME280;3488;42.616;23.350;2024-02-14T02:23:34;93099.56;;;4.04;74.07
6899;BME280;3488;42.616;23.350;2024-02-14T02:26:01;93086.03;;;3.93;74.49
6899;BME280;3488;42.616;23.350;2024-02-14T02:28:26;93076.81;;;3.87;74.56
6899;BME280;3488;42.616;23.350;2024-02-14T02:30:52;93089.88;;;3.91;74.39
6899;BME280;3488;42.616;23.350;2024-02-14T02:33:18;93095.75;;;4.01;73.93
6899;BME280;3488;42.616;23.350;2024-02-14T02:35:44;93091.88;;;3.99;73.98
6899;BME280;3488;42.616;23.350;2024-02-14T02:38:11;93077.84;;;3.86;74.41
6899;BME280;3488;42.616;23.350;2024-02-14T02:40:36;93103.72;;;3.95;74.30
6899;BME280;3488;42.616;23.350;2024-02-14T02:43:02;93080.38;;;3.91;73.08
6899;BME280;3488;42.616;23.350;2024-02-14T02:45:28;93093.47;;;3.95;74.41
6899;BME280;3488;42.616;23.350;2024-02-14T02:47:54;93098.59;;;3.95;73.13
6899;BME280;3488;42.616;23.350;2024-02-14T02:50:20;93109.09;;;3.98;73.12
6899;BME280;3488;42.616;23.350;2024-02-14T02:52:47;93111.94;;;3.92;74.60
6899;BME280;3488;42.616;23.350;2024-02-14T02:55:13;93126.81;;;4.00;73.66
6899;BME280;3488;42.616;23.350;2024-02-14T02:57:41;93117.59;;;3.89;73.20
6899;BME280;3488;42.616;23.350;2024-02-14T03:00:06;93125.25;;;3.99;73.68
6899;BME280;3488;42.616;23.350;2024-02-14T03:02:36;93100.69;;;3.83;73.12
6899;BME280;3488;42.616;23.350;2024-02-14T03:05:06;93127.78;;;4.04;73.19
6899;BME280;3488;42.616;23.350;2024-02-14T03:07:33;93115.50;;;3.96;73.47
6899;BME280;3488;42.616;23.350;2024-02-14T03:09:59;93130.13;;;4.00;73.17
6899;BME280;3488;42.616;23.350;2024-02-14T03:12:25;93120.13;;;3.99;72.16
6899;BME280;3488;42.616;23.350;2024-02-14T03:14:57;93141.13;;;4.06;72.26
6899;BME280;3488;42.616;23.350;2024-02-14T03:17:23;93149.09;;;4.04;72.19
6899;BME280;3488;42.616;23.350;2024-02-14T03:19:49;93139.88;;;4.03;71.86
6899;BME280;3488;42.616;23.350;2024-02-14T03:22:17;93139.09;;;4.03;72.50
6899;BME280;3488;42.616;23.350;2024-02-14T03:24:44;93148.09;;;4.00;72.10
6899;BME280;3488;42.616;23.350;2024-02-14T03:27:11;93115.28;;;3.87;71.53
6899;BME280;3488;42.616;23.350;2024-02-14T03:29:38;93146.81;;;3.98;71.44
6899;BME280;3488;42.616;23.350;2024-02-14T03:32:05;93160.66;;;3.97;72.59
6899;BME280;3488;42.616;23.350;2024-02-14T03:34:31;93145.25;;;3.97;72.28
6899;BME280;3488;42.616;23.350;2024-02-14T03:37:01;93166.84;;;3.96;72.71
6899;BME280;3488;42.616;23.350;2024-02-14T03:39:28;93170.16;;;4.01;72.46
6899;BME280;3488;42.616;23.350;2024-02-14T03:41:54;93164.28;;;3.91;71.99
6899;BME280;3488;42.616;23.350;2024-02-14T03:44:22;93174.00;;;4.04;72.09
6899;BME280;3488;42.616;23.350;2024-02-14T03:46:48;93178.63;;;3.97;71.42
6899;BME280;3488;42.616;23.350;2024-02-14T03:49:13;93177.09;;;3.96;72.07
6899;BME280;3488;42.616;23.350;2024-02-14T03:51:39;93167.63;;;3.91;71.95
6899;BME280;3488;42.616;23.350;2024-02-14T03:54:05;93166.03;;;4.00;71.42
6899;BME280;3488;42.616;23.350;2024-02-14T03:56:31;93163.22;;;3.97;70.92
6899;BME280;3488;42.616;23.350;2024-02-14T03:58:58;93168.38;;;3.92;71.20
6899;BME280;3488;42.616;23.350;2024-02-14T04:01:24;93185.84;;;3.95;71.37
6899;BME280;3488;42.616;23.350;2024-02-14T04:03:50;93157.66;;;3.79;70.55
6899;BME280;3488;42.616;23.350;2024-02-14T04:06:16;93189.41;;;3.94;71.24
6899;BME280;3488;42.616;23.350;2024-02-14T04:08:42;93184.28;;;3.89;71.92
6899;BME280;3488;42.616;23.350;2024-02-14T04:11:08;93167.13;;;3.84;70.75
6899;BME280;3488;42.616;23.350;2024-02-14T04:13:34;93184.03;;;3.95;71.11
6899;BME280;3488;42.616;23.350;2024-02-14T04:15:59;93159.69;;;3.88;71.08
6899;BME280;3488;42.616;23.350;2024-02-14T04:18:25;93180.97;;;3.93;71.37
6899;BME280;3488;42.616;23.350;2024-02-14T04:20:50;93153.56;;;3.73;70.99
6899;BME280;3488;42.616;23.350;2024-02-14T04:23:16;93148.69;;;3.72;70.16
6899;BME280;3488;42.616;23.350;2024-02-14T04:25:42;93202.22;;;3.99;69.82
6899;BME280;3488;42.616;23.350;2024-02-14T04:28:08;93200.72;;;3.93;69.90
6899;BME280;3488;42.616;23.350;2024-02-14T04:30:36;93200.72;;;3.88;70.68
6899;BME280;3488;42.616;23.350;2024-02-14T04:33:03;93203.81;;;3.90;71.60
6899;BME280;3488;42.616;23.350;2024-02-14T04:35:30;93190.22;;;3.89;70.94
6899;BME280;3488;42.616;23.350;2024-02-14T04:37:55;93211.53;;;3.85;71.00
6899;BME280;3488;42.616;23.350;2024-02-14T04:40:21;93208.44;;;3.83;71.38
6899;BME280;3488;42.616;23.350;2024-02-14T04:42:47;93218.19;;;3.86;71.34
6899;BME280;3488;42.616;23.350;2024-02-14T04:45:13;93194.59;;;3.78;71.06
6899;BME280;3488;42.616;23.350;2024-02-14T04:47:39;93207.16;;;3.80;71.19
6899;BME280;3488;42.616;23.350;2024-02-14T04:50:05;93217.91;;;3.82;71.64
6899;BME280;3488;42.616;23.350;2024-02-14T04:52:31;93215.09;;;3.78;71.49
6899;BME280;3488;42.616;23.350;2024-02-14T04:54:57;93216.88;;;3.78;71.28
6899;BME280;3488;42.616;23.350;2024-02-14T04:57:22;93215.63;;;3.75;71.75
6899;BME280;3488;42.616;23.350;2024-02-14T04:59:48;93227.94;;;3.73;72.32
6899;BME280;3488;42.616;23.350;2024-02-14T05:02:14;93222.28;;;3.71;71.54
6899;BME280;3488;42.616;23.350;2024-02-14T05:04:39;93227.44;;;3.61;72.63
6899;BME280;3488;42.616;23.350;2024-02-14T05:07:05;93247.69;;;3.78;72.81
6899;BME280;3488;42.616;23.350;2024-02-14T05:09:32;93237.19;;;3.74;70.88
6899;BME280;3488;42.616;23.350;2024-02-14T05:11:58;93239.97;;;3.78;70.78
6899;BME280;3488;42.616;23.350;2024-02-14T05:14:23;93240.75;;;3.73;70.85
6899;BME280;3488;42.616;23.350;2024-02-14T05:16:49;93247.44;;;3.74;71.41
6899;BME280;3488;42.616;23.350;2024-02-14T05:19:15;93253.84;;;3.82;71.43
6899;BME280;3488;42.616;23.350;2024-02-14T05:21:40;93264.09;;;3.87;71.32
6899;BME280;3488;42.616;23.350;2024-02-14T05:24:06;93224.88;;;3.56;71.84
6899;BME280;3488;42.616;23.350;2024-02-14T05:26:32;93275.13;;;3.83;71.49
6899;BME280;3488;42.616;23.350;2024-02-14T05:29:00;93227.69;;;3.50;72.38
6899;BME280;3488;42.616;23.350;2024-02-14T05:31:42;93277.72;;;3.77;72.29
6899;BME280;3488;42.616;23.350;2024-02-14T05:34:09;93265.91;;;3.41;73.10
6899;BME280;3488;42.616;23.350;2024-02-14T05:36:35;93283.59;;;3.58;73.00
6899;BME280;3488;42.616;23.350;2024-02-14T05:39:01;93290.03;;;3.65;72.78
6899;BME280;3488;42.616;23.350;2024-02-14T05:41:27;93300.28;;;3.65;73.49
6899;BME280;3488;42.616;23.350;2024-02-14T05:43:53;93308.75;;;3.61;72.13
6899;BME280;3488;42.616;23.350;2024-02-14T05:46:19;93302.06;;;3.65;72.51
6899;BME280;3488;42.616;23.350;2024-02-14T05:48:46;93306.44;;;3.64;72.20
6899;BME280;3488;42.616;23.350;2024-02-14T05:51:13;93295.94;;;3.61;72.24
6899;BME280;3488;42.616;23.350;2024-02-14T05:53:39;93304.38;;;3.61;72.36
6899;BME280;3488;42.616;23.350;2024-02-14T05:56:05;93297.72;;;3.60;71.67
6899;BME280;3488;42.616;23.350;2024-02-14T05:58:31;93314.16;;;3.69;70.35
6899;BME280;3488;42.616;23.350;2024-02-14T06:00:57;93329.53;;;3.64;71.94
6899;BME280;3488;42.616;23.350;2024-02-14T06:03:23;93332.59;;;3.71;70.33
6899;BME280;3488;42.616;23.350;2024-02-14T06:05:48;93320.78;;;3.65;70.42
6899;BME280;3488;42.616;23.350;2024-02-14T06:08:14;93333.88;;;3.74;70.90
6899;BME280;3488;42.616;23.350;2024-02-14T06:10:39;93345.16;;;3.68;70.78
6899;BME280;3488;42.616;23.350;2024-02-14T06:13:05;93303.09;;;3.49;71.52
6899;BME280;3488;42.616;23.350;2024-02-14T06:15:31;93339.28;;;3.67;71.34
6899;BME280;3488;42.616;23.350;2024-02-14T06:17:56;93332.31;;;3.63;71.28
6899;BME280;3488;42.616;23.350;2024-02-14T06:20:23;93328.75;;;3.64;71.28
6899;BME280;3488;42.616;23.350;2024-02-14T06:22:48;93355.41;;;3.68;70.54
6899;BME280;3488;42.616;23.350;2024-02-14T06:25:14;93354.66;;;3.67;70.83
6899;BME280;3488;42.616;23.350;2024-02-14T06:27:39;93331.31;;;3.64;70.51
6899;BME280;3488;42.616;23.350;2024-02-14T06:30:05;93350.78;;;3.65;70.01
6899;BME280;3488;42.616;23.350;2024-02-14T06:32:32;93349.81;;;3.76;70.87
6899;BME280;3488;42.616;23.350;2024-02-14T06:34:58;93348.75;;;3.72;69.56
6899;BME280;3488;42.616;23.350;2024-02-14T06:37:23;93296.91;;;3.40;69.16
6899;BME280;3488;42.616;23.350;2024-02-14T06:39:49;93342.09;;;3.71;69.77
6899;BME280;3488;42.616;23.350;2024-02-14T06:42:15;93373.63;;;3.71;70.36
6899;BME280;3488;42.616;23.350;2024-02-14T06:44:45;93353.34;;;3.60;69.54
6899;BME280;3488;42.616;23.350;2024-02-14T06:47:11;93356.97;;;3.64;69.12
6899;BME280;3488;42.616;23.350;2024-02-14T06:49:36;93367.25;;;3.79;70.09
6899;BME280;3488;42.616;23.350;2024-02-14T06:52:03;93366.16;;;3.55;69.29
6899;BME280;3488;42.616;23.350;2024-02-14T06:54:29;93349.00;;;3.70;68.65
6899;BME280;3488;42.616;23.350;2024-02-14T06:56:55;93362.91;;;3.85;69.86
6899;BME280;3488;42.616;23.350;2024-02-14T06:59:20;93370.34;;;3.96;68.34
6899;BME280;3488;42.616;23.350;2024-02-14T07:01:46;93374.16;;;3.99;68.45
6899;BME280;3488;42.616;23.350;2024-02-14T07:04:11;93366.97;;;3.75;68.74
6899;BME280;3488;42.616;23.350;2024-02-14T07:06:37;93346.72;;;3.84;68.82
6899;BME280;3488;42.616;23.350;2024-02-14T07:09:03;93391.13;;;3.95;68.25
6899;BME280;3488;42.616;23.350;2024-02-14T07:11:28;93389.81;;;3.97;69.10
6899;BME280;3488;42.616;23.350;2024-02-14T07:13:55;93391.59;;;3.87;68.69
6899;BME280;3488;42.616;23.350;2024-02-14T07:16:21;93344.16;;;3.74;67.70
6899;BME280;3488;42.616;23.350;2024-02-14T07:18:47;93413.94;;;3.86;67.85
6899;BME280;3488;42.616;23.350;2024-02-14T07:21:12;93412.38;;;3.85;68.34
6899;BME280;3488;42.616;23.350;2024-02-14T07:23:38;93385.97;;;3.69;68.39
6899;BME280;3488;42.616;23.350;2024-02-14T07:26:04;93385.47;;;3.83;68.71
6899;BME280;3488;42.616;23.350;2024-02-14T07:28:29;93390.56;;;3.72;68.48
6899;BME280;3488;42.616;23.350;2024-02-14T07:30:55;93402.41;;;3.94;68.09
6899;BME280;3488;42.616;23.350;2024-02-14T07:33:20;93409.34;;;4.08;66.83
6899;BME280;3488;42.616;23.350;2024-02-14T07:35:47;93389.06;;;4.07;66.83
6899;BME280;3488;42.616;23.350;2024-02-14T07:38:13;93385.22;;;4.09;66.07
6899;BME280;3488;42.616;23.350;2024-02-14T07:40:39;93416.28;;;4.03;66.69
6899;BME280;3488;42.616;23.350;2024-02-14T07:43:05;93411.41;;;3.96;67.33
6899;BME280;3488;42.616;23.350;2024-02-14T07:45:32;93421.66;;;3.91;66.15
6899;BME280;3488;42.616;23.350;2024-02-14T07:47:58;93420.88;;;4.01;66.62
6899;BME280;3488;42.616;23.350;2024-02-14T07:50:23;93418.84;;;4.03;67.17
6899;BME280;3488;42.616;23.350;2024-02-14T07:52:49;93425.72;;;3.82;68.21
6899;BME280;3488;42.616;23.350;2024-02-14T07:55:14;93415.19;;;3.73;67.34
6899;BME280;3488;42.616;23.350;2024-02-14T07:57:41;93403.94;;;3.85;67.92
6899;BME280;3488;42.616;23.350;2024-02-14T08:00:08;93422.63;;;3.65;67.40
6899;BME280;3488;42.616;23.350;2024-02-14T08:02:34;93414.94;;;3.70;68.05
6899;BME280;3488;42.616;23.350;2024-02-14T08:05:00;93429.59;;;3.90;68.12
6899;BME280;3488;42.616;23.350;2024-02-14T08:07:26;93440.88;;;3.89;68.47
6899;BME280;3488;42.616;23.350;2024-02-14T08:09:52;93430.31;;;3.65;68.97
6899;BME280;3488;42.616;23.350;2024-02-14T08:12:18;93441.88;;;3.72;69.97
6899;BME280;3488;42.616;23.350;2024-02-14T08:14:44;93446.91;;;3.37;71.83
6899;BME280;3488;42.616;23.350;2024-02-14T08:17:10;93413.91;;;2.94;73.83
6899;BME280;3488;42.616;23.350;2024-02-14T08:19:36;93413.44;;;3.02;72.91
6899;BME280;3488;42.616;23.350;2024-02-14T08:22:02;93421.44;;;3.16;72.15
6899;BME280;3488;42.616;23.350;2024-02-14T08:24:28;93407.00;;;3.00;73.37
6899;BME280;3488;42.616;23.350;2024-02-14T08:26:54;93383.63;;;2.86;73.77
6899;BME280;3488;42.616;23.350;2024-02-14T08:29:20;93416.69;;;2.88;73.83
6899;BME280;3488;42.616;23.350;2024-02-14T08:31:46;93440.13;;;3.16;74.09
6899;BME280;3488;42.616;23.350;2024-02-14T08:34:13;93448.06;;;3.15;74.87
6899;BME280;3488;42.616;23.350;2024-02-14T08:36:39;93435.25;;;3.10;73.96
6899;BME280;3488;42.616;23.350;2024-02-14T08:39:09;93383.53;;;2.66;72.97
6899;BME280;3488;42.616;23.350;2024-02-14T08:41:38;93436.53;;;3.07;74.28
6899;BME280;3488;42.616;23.350;2024-02-14T08:44:06;93447.34;;;3.24;72.53
6899;BME280;3488;42.616;23.350;2024-02-14T08:46:32;93461.47;;;3.27;72.21
6899;BME280;3488;42.616;23.350;2024-02-14T08:49:03;93424.16;;;2.94;73.63
6899;BME280;3488;42.616;23.350;2024-02-14T08:51:34;93441.19;;;3.20;72.90
6899;BME280;3488;42.616;23.350;2024-02-14T08:54:00;93473.56;;;3.41;71.82
6899;BME280;3488;42.616;23.350;2024-02-14T08:56:25;93432.41;;;3.06;72.20
6899;BME280;3488;42.616;23.350;2024-02-14T08:58:51;93444.22;;;3.07;71.10
6899;BME280;3488;42.616;23.350;2024-02-14T09:01:16;93445.53;;;3.20;71.17
6899;BME280;3488;42.616;23.350;2024-02-14T09:03:43;93424.25;;;3.19;71.37
6899;BME280;3488;42.616;23.350;2024-02-14T09:06:13;93464.66;;;3.54;71.02
6899;BME280;3488;42.616;23.350;2024-02-14T09:08:39;93476.72;;;3.58;69.73
6899;BME280;3488;42.616;23.350;2024-02-14T09:11:06;93446.19;;;3.57;70.16
6899;BME280;3488;42.616;23.350;2024-02-14T09:13:31;93480.34;;;3.67;69.73
6899;BME280;3488;42.616;23.350;2024-02-14T09:15:57;93474.41;;;3.57;69.13
6899;BME280;3488;42.616;23.350;2024-02-14T09:18:22;93494.22;;;3.76;68.94
6899;BME280;3488;42.616;23.350;2024-02-14T09:20:49;93481.34;;;3.66;70.00
6899;BME280;3488;42.616;23.350;2024-02-14T09:23:17;93492.88;;;3.59;69.58
6899;BME280;3488;42.616;23.350;2024-02-14T09:25:46;93486.19;;;3.53;70.70
6899;BME280;3488;42.616;23.350;2024-02-14T09:28:12;93481.25;;;3.36;71.36
6899;BME280;3488;42.616;23.350;2024-02-14T09:30:39;93475.56;;;3.29;71.85
6899;BME280;3488;42.616;23.350;2024-02-14T09:33:05;93453.25;;;3.25;71.70
6899;BME280;3488;42.616;23.350;2024-02-14T09:35:30;93463.69;;;3.08;72.75
6899;BME280;3488;42.616;23.350;2024-02-14T09:37:56;93460.09;;;3.09;71.02
6899;BME280;3488;42.616;23.350;2024-02-14T09:40:21;93450.41;;;3.21;71.73
6899;BME280;3488;42.616;23.350;2024-02-14T09:43:01;93501.78;;;3.46;72.24
6899;BME280;3488;42.616;23.350;2024-02-14T09:45:30;93493.53;;;3.34;72.66
6899;BME280;3488;42.616;23.350;2024-02-14T09:47:58;93495.97;;;3.56;71.70
6899;BME280;3488;42.616;23.350;2024-02-14T09:50:24;93466.69;;;3.47;70.70
6899;BME280;3488;42.616;23.350;2024-02-14T09:52:52;93475.41;;;3.51;72.17
6899;BME280;3488;42.616;23.350;2024-02-14T09:55:19;93450.03;;;3.49;71.39
6899;BME280;3488;42.616;23.350;2024-02-14T09:57:46;93481.63;;;3.70;70.21
6899;BME280;3488;42.616;23.350;2024-02-14T10:00:14;93495.50;;;3.74;70.68
6899;BME280;3488;42.616;23.350;2024-02-14T10:02:40;93481.66;;;3.85;70.81
6899;BME280;3488;42.616;23.350;2024-02-14T10:05:06;93471.13;;;3.81;68.95
6899;BME280;3488;42.616;23.350;2024-02-14T10:07:43;93469.06;;;3.73;69.18
6899;BME280;3488;42.616;23.350;2024-02-14T10:10:09;93464.94;;;3.62;69.12
6899;BME280;3488;42.616;23.350;2024-02-14T10:12:35;93489.34;;;3.85;68.39
6899;BME280;3488;42.616;23.350;2024-02-14T10:15:01;93477.41;;;3.39;69.44
6899;BME280;3488;42.616;23.350;2024-02-14T10:17:27;93442.81;;;3.41;67.72
6899;BME280;3488;42.616;23.350;2024-02-14T10:20:00;93500.34;;;3.65;68.84
6899;BME280;3488;42.616;23.350;2024-02-14T10:22:37;93504.38;;;3.51;67.96
6899;BME280;3488;42.616;23.350;2024-02-14T10:25:05;93496.75;;;3.71;69.26
6899;BME280;3488;42.616;23.350;2024-02-14T10:27:38;93496.06;;;3.86;67.25
6899;BME280;3488;42.616;23.350;2024-02-14T10:30:05;93470.53;;;3.49;68.26
6899;BME280;3488;42.616;23.350;2024-02-14T10:32:34;93477.00;;;3.67;68.61
6899;BME280;3488;42.616;23.350;2024-02-14T10:35:00;93491.91;;;3.75;68.63
6899;BME280;3488;42.616;23.350;2024-02-14T10:37:28;93463.16;;;3.68;67.83
6899;BME280;3488;42.616;23.350;2024-02-14T10:39:56;93492.16;;;3.73;68.12
6899;BME280;3488;42.616;23.350;2024-02-14T10:42:24;93493.75;;;3.90;67.67
6899;BME280;3488;42.616;23.350;2024-02-14T10:44:49;93479.59;;;3.72;67.38
6899;BME280;3488;42.616;23.350;2024-02-14T10:47:19;93489.09;;;3.81;66.99
6899;BME280;3488;42.616;23.350;2024-02-14T10:49:48;93480.66;;;3.81;66.17
6899;BME280;3488;42.616;23.350;2024-02-14T10:52:18;93492.66;;;3.70;65.92
6899;BME280;3488;42.616;23.350;2024-02-14T10:54:52;93490.91;;;3.76;66.94
6899;BME280;3488;42.616;23.350;2024-02-14T10:57:24;93505.22;;;3.72;66.64
6899;BME280;3488;42.616;23.350;2024-02-14T10:59:50;93473.59;;;3.46;68.52
6899;BME280;3488;42.616;23.350;2024-02-14T11:02:17;93500.63;;;3.69;67.73
6899;BME280;3488;42.616;23.350;2024-02-14T11:04:45;93495.75;;;3.72;68.32
6899;BME280;3488;42.616;23.350;2024-02-14T11:07:11;93502.97;;;3.80;68.08
6899;BME280;3488;42.616;23.350;2024-02-14T11:09:37;93474.41;;;3.62;69.17
6899;BME280;3488;42.616;23.350;2024-02-14T11:12:06;93464.66;;;3.59;67.29
6899;BME280;3488;42.616;23.350;2024-02-14T11:14:35;93487.50;;;3.65;68.30
6899;BME280;3488;42.616;23.350;2024-02-14T11:17:10;93497.25;;;3.68;67.32
6899;BME280;3488;42.616;23.350;2024-02-14T11:19:37;93491.81;;;3.50;68.44
6899;BME280;3488;42.616;23.350;2024-02-14T11:22:17;93487.50;;;3.60;68.03
6899;BME280;3488;42.616;23.350;2024-02-14T11:24:45;93480.91;;;3.18;68.45
6899;BME280;3488;42.616;23.350;2024-02-14T11:27:11;93454.53;;;3.22;68.52
6899;BME280;3488;42.616;23.350;2024-02-14T11:29:39;93504.41;;;3.56;67.85
6899;BME280;3488;42.616;23.350;2024-02-14T11:32:08;93490.84;;;3.61;69.50
6899;BME280;3488;42.616;23.350;2024-02-14T11:34:35;93488.75;;;3.58;67.66
6899;BME280;3488;42.616;23.350;2024-02-14T11:37:01;93493.69;;;3.64;68.47
6899;BME280;3488;42.616;23.350;2024-02-14T11:39:27;93497.81;;;3.75;68.96
6899;BME280;3488;42.616;23.350;2024-02-14T11:41:52;93485.72;;;3.66;68.28
6899;BME280;3488;42.616;23.350;2024-02-14T11:44:21;93476.16;;;3.51;70.34
6899;BME280;3488;42.616;23.350;2024-02-14T11:46:51;93488.03;;;3.67;68.50
6899;BME280;3488;42.616;23.350;2024-02-14T11:49:17;93487.00;;;3.68;69.25
6899;BME280;3488;42.616;23.350;2024-02-14T11:51:42;93488.03;;;3.67;68.73
6899;BME280;3488;42.616;23.350;2024-02-14T11:54:09;93495.75;;;3.72;68.36
6899;BME280;3488;42.616;23.350;2024-02-14T11:56:36;93491.91;;;3.80;67.29
6899;BME280;3488;42.616;23.350;2024-02-14T11:59:02;93479.59;;;3.82;67.72
6899;BME280;3488;42.616;23.350;2024-02-14T12:01:31;93495.28;;;3.91;67.60
6899;BME280;3488;42.616;23.350;2024-02-14T12:03:59;93495.28;;;3.91;65.95
6899;BME280;3488;42.616;23.350;2024-02-14T12:06:29;93484.22;;;3.85;66.11
6899;BME280;3488;42.616;23.350;2024-02-14T12:09:02;93486.53;;;3.87;66.07
6899;BME280;3488;42.616;23.350;2024-02-14T12:11:34;93471.13;;;3.76;64.98
6899;BME280;3488;42.616;23.350;2024-02-14T12:14:03;93477.31;;;3.80;65.82
6899;BME280;3488;42.616;23.350;2024-02-14T12:16:29;93452.66;;;3.69;66.50
6899;BME280;3488;42.616;23.350;2024-02-14T12:19:05;93490.66;;;3.88;66.12
6899;BME280;3488;42.616;23.350;2024-02-14T12:21:39;93480.41;;;3.93;66.21
6899;BME280;3488;42.616;23.350;2024-02-14T12:24:09;93482.47;;;3.96;65.54
6899;BME280;3488;42.616;23.350;2024-02-14T12:26:36;93486.31;;;3.88;65.28
6899;BME280;3488;42.616;23.350;2024-02-14T12:29:06;93480.16;;;3.99;66.11
6899;BME280;3488;42.616;23.350;2024-02-14T12:31:33;93465.28;;;4.01;64.26
6899;BME280;3488;42.616;23.350;2024-02-14T12:34:00;93474.00;;;4.05;64.22
6899;BME280;3488;42.616;23.350;2024-02-14T12:36:31;93475.84;;;4.10;63.57
6899;BME280;3488;42.616;23.350;2024-02-14T12:38:58;93470.44;;;4.06;63.58
6899;BME280;3488;42.616;23.350;2024-02-14T12:41:24;93461.44;;;4.04;64.24
6899;BME280;3488;42.616;23.350;2024-02-14T12:43:52;93400.59;;;3.74;63.28
6899;BME280;3488;42.616;23.350;2024-02-14T12:46:19;93410.59;;;3.80;63.60
6899;BME280;3488;42.616;23.350;2024-02-14T12:48:44;93426.53;;;3.93;63.94
6899;BME280;3488;42.616;23.350;2024-02-14T12:51:10;93434.75;;;4.10;63.66
6899;BME280;3488;42.616;23.350;2024-02-14T12:53:36;93480.47;;;4.33;63.65
6899;BME280;3488;42.616;23.350;2024-02-14T12:56:02;93468.66;;;4.32;63.19
6899;BME280;3488;42.616;23.350;2024-02-14T12:58:30;93482.00;;;4.44;62.85
6899;BME280;3488;42.616;23.350;2024-02-14T13:00:56;93478.44;;;4.45;62.68
6899;BME280;3488;42.616;23.350;2024-02-14T13:03:21;93493.06;;;4.34;62.85
6899;BME280;3488;42.616;23.350;2024-02-14T13:05:48;93463.50;;;4.22;62.58
6899;BME280;3488;42.616;23.350;2024-02-14T13:08:13;93460.69;;;4.13;61.85
6899;BME280;3488;42.616;23.350;2024-02-14T13:10:43;93442.94;;;4.02;61.41
6899;BME280;3488;42.616;23.350;2024-02-14T13:13:09;93456.31;;;4.14;60.97
6899;BME280;3488;42.616;23.350;2024-02-14T13:15:36;93456.84;;;4.26;61.86
6899;BME280;3488;42.616;23.350;2024-02-14T13:18:02;93447.09;;;4.18;61.91
6899;BME280;3488;42.616;23.350;2024-02-14T13:20:28;93467.09;;;4.21;60.45